sensor_id;sensor_type;location;lat;lon;timestamp;pressure;altitude;pressure_sealevel;temperature;humidity
29825;BME280;16713;52.916;12.834;2023-05-10T00:01:44;100640.22;;;12.52;53.01
29825;BME280;16713;52.916;12.834;2023-05-10T00:04:11;100634.97;;;12.43;52.99
29825;BME280;16713;52.916;12.834;2023-05-10T00:06:38;100639.00;;;12.49;52.78
29825;BME280;16713;52.916;12.834;2023-05-10T00:09:04;100640.03;;;12.64;52.51
29825;BME280;16713;52.916;12.834;2023-05-10T00:11:30;100634.03;;;12.58;53.46
29825;BME280;16713;52.916;12.834;2023-05-10T00:13:57;100628.09;;;12.56;52.79
29825;BME280;16713;52.916;12.834;2023-05-10T00:16:23;100622.19;;;12.54;52.47
29825;BME280;16713;52.916;12.834;2023-05-10T00:18:50;100619.00;;;12.52;52.77
29825;BME280;16713;52.916;12.834;2023-05-10T00:21:16;100619.44;;;12.54;52.62
29825;BME280;16713;52.916;12.834;2023-05-10T00:23:42;100613.06;;;12.50;52.93
29825;BME280;16713;52.916;12.834;2023-05-10T00:26:09;100611.00;;;12.44;53.76
29825;BME280;16713;52.916;12.834;2023-05-10T00:28:35;100611.81;;;12.44;53.02
29825;BME280;16713;52.916;12.834;2023-05-10T00:31:01;100607.03;;;12.41;53.43
29825;BME280;16713;52.916;12.834;2023-05-10T00:33:28;100604.59;;;12.36;53.38
29825;BME280;16713;52.916;12.834;2023-05-10T00:35:54;100606.16;;;12.34;53.28
29825;BME280;16713;52.916;12.834;2023-05-10T00:38:21;100604.91;;;12.31;53.50
29825;BME280;16713;52.916;12.834;2023-05-10T00:40:47;100597.84;;;12.30;53.25
29825;BME280;16713;52.916;12.834;2023-05-10T00:43:13;100604.53;;;12.33;53.85
29825;BME280;16713;52.916;12.834;2023-05-10T00:45:40;100594.41;;;12.37;53.25
29825;BME280;16713;52.916;12.834;2023-05-10T00:48:06;100595.28;;;12.44;53.47
29825;BME280;16713;52.916;12.834;2023-05-10T00:50:33;100590.91;;;12.40;53.22
29825;BME280;16713;52.916;12.834;2023-05-10T00:52:59;100591.28;;;12.38;53.43
29825;BME280;16713;52.916;12.834;2023-05-10T00:55:26;100588.22;;;12.43;53.01
29825;BME280;16713;52.916;12.834;2023-05-10T00:57:53;100589.38;;;12.42;52.99
29825;BME280;16713;52.916;12.834;2023-05-10T01:00:19;100587.78;;;12.41;53.25
29825;BME280;16713;52.916;12.834;2023-05-10T01:02:46;100581.13;;;12.42;53.10
29825;BME280;16713;52.916;12.834;2023-05-10T01:05:13;100585.13;;;12.48;53.31
29825;BME280;16713;52.916;12.834;2023-05-10T01:07:39;100575.19;;;12.40;53.14
29825;BME280;16713;52.916;12.834;2023-05-10T01:10:06;100574.78;;;12.38;53.25
29825;BME280;16713;52.916;12.834;2023-05-10T01:12:37;100580.59;;;12.33;53.83
29825;BME280;16713;52.916;12.834;2023-05-10T01:15:05;100571.47;;;12.29;53.67
29825;BME280;16713;52.916;12.834;2023-05-10T01:17:31;100584.44;;;12.29;53.85
29825;BME280;16713;52.916;12.834;2023-05-10T01:19:58;100570.53;;;12.18;54.51
29825;BME280;16713;52.916;12.834;2023-05-10T01:35:37;100562.34;;;11.99;55.05
29825;BME280;16713;52.916;12.834;2023-05-10T01:38:10;100562.66;;;11.94;54.78
29825;BME280;16713;52.916;12.834;2023-05-10T01:43:26;100559.06;;;11.90;55.26
29825;BME280;16713;52.916;12.834;2023-05-10T01:48:26;100549.41;;;11.77;55.82
29825;BME280;16713;52.916;12.834;2023-05-10T01:50:53;100546.78;;;11.61;55.22
29825;BME280;16713;52.916;12.834;2023-05-10T01:53:20;100548.97;;;11.75;56.04
29825;BME280;16713;52.916;12.834;2023-05-10T01:55:48;100545.03;;;11.72;55.74
29825;BME280;16713;52.916;12.834;2023-05-10T01:58:17;100542.31;;;11.76;55.11
29825;BME280;16713;52.916;12.834;2023-05-10T02:00:45;100541.84;;;11.70;55.62
29825;BME280;16713;52.916;12.834;2023-05-10T02:03:12;100545.41;;;11.71;55.41
29825;BME280;16713;52.916;12.834;2023-05-10T02:05:40;100534.41;;;11.71;55.44
29825;BME280;16713;52.916;12.834;2023-05-10T02:08:07;100542.44;;;11.60;56.09
29825;BME280;16713;52.916;12.834;2023-05-10T02:10:34;100531.91;;;11.43;56.86
29825;BME280;16713;52.916;12.834;2023-05-10T02:13:02;100536.88;;;11.38;56.63
29825;BME280;16713;52.916;12.834;2023-05-10T02:15:28;100546.41;;;11.44;56.25
29825;BME280;16713;52.916;12.834;2023-05-10T02:17:55;100539.50;;;11.50;56.21
29825;BME280;16713;52.916;12.834;2023-05-10T02:20:23;100527.63;;;11.46;56.44
29825;BME280;16713;52.916;12.834;2023-05-10T02:22:50;100525.25;;;11.44;56.81
29825;BME280;16713;52.916;12.834;2023-05-10T02:25:17;100527.91;;;11.41;56.86
29825;BME280;16713;52.916;12.834;2023-05-10T02:27:45;100529.09;;;11.40;57.65
29825;BME280;16713;52.916;12.834;2023-05-10T02:30:12;100534.06;;;11.34;56.86
29825;BME280;16713;52.916;12.834;2023-05-10T02:32:39;100539.16;;;11.32;56.40
29825;BME280;16713;52.916;12.834;2023-05-10T02:35:07;100526.19;;;11.33;56.96
29825;BME280;16713;52.916;12.834;2023-05-10T02:37:34;100528.91;;;11.29;56.81
29825;BME280;16713;52.916;12.834;2023-05-10T02:40:01;100523.34;;;11.26;57.17
29825;BME280;16713;52.916;12.834;2023-05-10T02:42:29;100524.91;;;11.27;56.74
29825;BME280;16713;52.916;12.834;2023-05-10T02:44:59;100524.38;;;11.18;57.15
29825;BME280;16713;52.916;12.834;2023-05-10T02:47:26;100526.81;;;11.23;57.01
29825;BME280;16713;52.916;12.834;2023-05-10T02:49:53;100529.41;;;11.16;57.74
29825;BME280;16713;52.916;12.834;2023-05-10T02:52:21;100530.94;;;11.13;57.85
29825;BME280;16713;52.916;12.834;2023-05-10T02:54:49;100524.50;;;11.06;58.01
29825;BME280;16713;52.916;12.834;2023-05-10T02:57:17;100524.44;;;11.02;57.48
29825;BME280;16713;52.916;12.834;2023-05-10T02:59:48;100520.84;;;10.98;57.63
29825;BME280;16713;52.916;12.834;2023-05-10T03:02:14;100519.59;;;10.96;58.93
29825;BME280;16713;52.916;12.834;2023-05-10T03:04:41;100520.03;;;10.98;57.41
29825;BME280;16713;52.916;12.834;2023-05-10T03:07:07;100518.09;;;10.98;57.40
29825;BME280;16713;52.916;12.834;2023-05-10T03:09:34;100515.34;;;10.98;57.42
29825;BME280;16713;52.916;12.834;2023-05-10T03:12:02;100522.84;;;11.01;57.78
29825;BME280;16713;52.916;12.834;2023-05-10T03:19:43;100512.38;;;11.07;57.81
29825;BME280;16713;52.916;12.834;2023-05-10T03:22:13;100515.53;;;11.09;57.07
29825;BME280;16713;52.916;12.834;2023-05-10T03:24:44;100503.44;;;11.10;56.60
29825;BME280;16713;52.916;12.834;2023-05-10T03:27:11;100504.94;;;11.07;57.31
29825;BME280;16713;52.916;12.834;2023-05-10T03:29:38;100516.28;;;11.06;57.85
29825;BME280;16713;52.916;12.834;2023-05-10T03:32:05;100502.47;;;11.02;57.75
29825;BME280;16713;52.916;12.834;2023-05-10T03:34:31;100511.78;;;10.98;57.03
29825;BME280;16713;52.916;12.834;2023-05-10T03:36:58;100510.22;;;10.97;57.37
29825;BME280;16713;52.916;12.834;2023-05-10T03:39:24;100506.31;;;10.98;58.28
29825;BME280;16713;52.916;12.834;2023-05-10T03:41:51;100498.44;;;10.96;58.04
29825;BME280;16713;52.916;12.834;2023-05-10T03:44:17;100507.03;;;10.95;58.05
29825;BME280;16713;52.916;12.834;2023-05-10T03:46:43;100507.84;;;10.95;58.21
29825;BME280;16713;52.916;12.834;2023-05-10T03:49:10;100511.34;;;10.96;58.11
29825;BME280;16713;52.916;12.834;2023-05-10T03:51:36;100510.16;;;10.93;57.91
29825;BME280;16713;52.916;12.834;2023-05-10T03:54:02;100503.13;;;10.96;58.05
29825;BME280;16713;52.916;12.834;2023-05-10T03:56:29;100503.81;;;10.89;57.90
29825;BME280;16713;52.916;12.834;2023-05-10T03:58:56;100503.56;;;10.98;58.22
29825;BME280;16713;52.916;12.834;2023-05-10T04:01:22;100502.78;;;10.97;58.12
29825;BME280;16713;52.916;12.834;2023-05-10T04:03:48;100501.09;;;10.93;57.97
29825;BME280;16713;52.916;12.834;2023-05-10T04:06:15;100495.06;;;10.84;59.67
29825;BME280;16713;52.916;12.834;2023-05-10T04:08:41;100497.06;;;10.87;57.81
29825;BME280;16713;52.916;12.834;2023-05-10T04:11:08;100499.81;;;10.87;59.12
29825;BME280;16713;52.916;12.834;2023-05-10T04:13:35;100499.81;;;10.87;58.02
29825;BME280;16713;52.916;12.834;2023-05-10T04:16:01;100506.97;;;10.91;58.80
29825;BME280;16713;52.916;12.834;2023-05-10T04:18:28;100501.91;;;10.93;58.69
29825;BME280;16713;52.916;12.834;2023-05-10T04:20:54;100492.47;;;10.91;59.28
29825;BME280;16713;52.916;12.834;2023-05-10T04:23:20;100494.03;;;10.92;57.71
29825;BME280;16713;52.916;12.834;2023-05-10T04:25:47;100496.44;;;10.93;59.71
29825;BME280;16713;52.916;12.834;2023-05-10T04:28:13;100496.28;;;11.05;58.28
29825;BME280;16713;52.916;12.834;2023-05-10T04:30:40;100500.53;;;11.03;58.29
29825;BME280;16713;52.916;12.834;2023-05-10T04:33:06;100505.72;;;11.08;57.81
29825;BME280;16713;52.916;12.834;2023-05-10T04:35:33;100501.69;;;11.02;57.48
29825;BME280;16713;52.916;12.834;2023-05-10T04:38:00;100499.59;;;11.14;57.03
29825;BME280;16713;52.916;12.834;2023-05-10T04:40:26;100482.81;;;11.19;58.68
29825;BME280;16713;52.916;12.834;2023-05-10T04:42:53;100492.03;;;11.30;58.10
29825;BME280;16713;52.916;12.834;2023-05-10T04:45:19;100483.81;;;11.30;57.84
29825;BME280;16713;52.916;12.834;2023-05-10T04:47:45;100489.00;;;11.35;57.79
29825;BME280;16713;52.916;12.834;2023-05-10T04:50:12;100489.97;;;11.46;57.39
29825;BME280;16713;52.916;12.834;2023-05-10T04:52:38;100488.41;;;11.45;57.76
29825;BME280;16713;52.916;12.834;2023-05-10T04:55:05;100483.03;;;11.52;56.88
29825;BME280;16713;52.916;12.834;2023-05-10T04:57:33;100486.28;;;11.58;56.92
29825;BME280;16713;52.916;12.834;2023-05-10T04:59:59;100482.72;;;11.57;57.53
29825;BME280;16713;52.916;12.834;2023-05-10T05:02:26;100478.53;;;11.63;57.23
29825;BME280;16713;52.916;12.834;2023-05-10T05:04:52;100482.56;;;11.69;57.25
29825;BME280;16713;52.916;12.834;2023-05-10T05:07:19;100488.97;;;11.77;57.07
29825;BME280;16713;52.916;12.834;2023-05-10T05:09:45;100485.84;;;11.78;57.13
29825;BME280;16713;52.916;12.834;2023-05-10T05:12:11;100477.19;;;11.76;56.57
29825;BME280;16713;52.916;12.834;2023-05-10T05:14:40;100486.81;;;11.89;56.86
29825;BME280;16713;52.916;12.834;2023-05-10T05:17:07;100485.28;;;11.92;57.18
29825;BME280;16713;52.916;12.834;2023-05-10T05:19:34;100488.25;;;12.06;56.91
29825;BME280;16713;52.916;12.834;2023-05-10T05:22:00;100484.81;;;12.13;56.42
29825;BME280;16713;52.916;12.834;2023-05-10T05:24:27;100492.47;;;12.26;56.52
29825;BME280;16713;52.916;12.834;2023-05-10T05:26:53;100487.59;;;12.42;55.70
29825;BME280;16713;52.916;12.834;2023-05-10T05:29:19;100496.75;;;12.50;56.52
29825;BME280;16713;52.916;12.834;2023-05-10T05:31:46;100491.09;;;12.65;55.42
29825;BME280;16713;52.916;12.834;2023-05-10T05:34:12;100488.84;;;12.74;54.88
29825;BME280;16713;52.916;12.834;2023-05-10T05:36:38;100496.84;;;12.86;54.96
29825;BME280;16713;52.916;12.834;2023-05-10T05:39:05;100493.41;;;12.93;54.78
29825;BME280;16713;52.916;12.834;2023-05-10T05:41:31;100486.81;;;13.04;54.72
29825;BME280;16713;52.916;12.834;2023-05-10T05:43:58;100493.66;;;13.14;53.86
29825;BME280;16713;52.916;12.834;2023-05-10T05:46:24;100492.38;;;13.08;55.32
29825;BME280;16713;52.916;12.834;2023-05-10T05:48:51;100491.03;;;13.28;53.88
29825;BME280;16713;52.916;12.834;2023-05-10T05:51:17;100505.22;;;13.30;53.72
29825;BME280;16713;52.916;12.834;2023-05-10T05:53:43;100504.09;;;13.34;54.14
29825;BME280;16713;52.916;12.834;2023-05-10T05:56:10;100496.69;;;13.42;54.10
29825;BME280;16713;52.916;12.834;2023-05-10T05:58:36;100501.00;;;13.43;54.19
29825;BME280;16713;52.916;12.834;2023-05-10T06:01:02;100507.88;;;13.60;54.48
29825;BME280;16713;52.916;12.834;2023-05-10T06:03:29;100500.72;;;13.52;53.67
29825;BME280;16713;52.916;12.834;2023-05-10T06:05:55;100509.84;;;13.63;53.30
29825;BME280;16713;52.916;12.834;2023-05-10T06:08:21;100511.13;;;13.69;53.46
29825;BME280;16713;52.916;12.834;2023-05-10T06:10:48;100510.34;;;13.68;53.88
29825;BME280;16713;52.916;12.834;2023-05-10T06:13:14;100510.38;;;13.72;53.79
29825;BME280;16713;52.916;12.834;2023-05-10T06:15:41;100515.97;;;13.82;54.79
29825;BME280;16713;52.916;12.834;2023-05-10T06:18:08;100511.19;;;13.76;54.41
29825;BME280;16713;52.916;12.834;2023-05-10T06:20:34;100511.31;;;13.90;53.16
29825;BME280;16713;52.916;12.834;2023-05-10T06:23:01;100518.06;;;13.99;53.99
29825;BME280;16713;52.916;12.834;2023-05-10T06:25:27;100514.13;;;13.97;54.57
29825;BME280;16713;52.916;12.834;2023-05-10T06:27:53;100509.78;;;13.92;53.93
29825;BME280;16713;52.916;12.834;2023-05-10T06:30:24;100521.47;;;14.33;52.68
29825;BME280;16713;52.916;12.834;2023-05-10T06:32:53;100515.19;;;14.32;53.58
29825;BME280;16713;52.916;12.834;2023-05-10T06:35:20;100504.50;;;14.27;53.57
29825;BME280;16713;52.916;12.834;2023-05-10T06:37:47;100511.69;;;14.46;52.39
29825;BME280;16713;52.916;12.834;2023-05-10T06:40:13;100515.69;;;14.55;53.12
29825;BME280;16713;52.916;12.834;2023-05-10T06:42:39;100501.50;;;14.53;52.13
29825;BME280;16713;52.916;12.834;2023-05-10T06:45:06;100512.72;;;14.82;52.76
29825;BME280;16713;52.916;12.834;2023-05-10T06:47:32;100505.91;;;14.65;52.04
29825;BME280;16713;52.916;12.834;2023-05-10T06:50:01;100501.41;;;14.36;52.44
29825;BME280;16713;52.916;12.834;2023-05-10T06:52:27;100505.13;;;14.61;52.81
29825;BME280;16713;52.916;12.834;2023-05-10T06:54:53;100522.66;;;14.97;52.41
29825;BME280;16713;52.916;12.834;2023-05-10T06:57:20;100533.34;;;15.09;53.19
29825;BME280;16713;52.916;12.834;2023-05-10T06:59:57;100523.88;;;15.13;52.97
29825;BME280;16713;52.916;12.834;2023-05-10T07:02:24;100531.84;;;15.29;53.13
29825;BME280;16713;52.916;12.834;2023-05-10T07:04:50;100531.41;;;15.16;53.18
29825;BME280;16713;52.916;12.834;2023-05-10T07:07:18;100523.88;;;15.17;53.69
29825;BME280;16713;52.916;12.834;2023-05-10T07:09:45;100522.72;;;15.25;51.93
29825;BME280;16713;52.916;12.834;2023-05-10T07:12:11;100528.31;;;15.35;52.01
29825;BME280;16713;52.916;12.834;2023-05-10T07:14:41;100534.69;;;15.64;52.66
29825;BME280;16713;52.916;12.834;2023-05-10T07:17:07;100527.59;;;15.59;52.22
29825;BME280;16713;52.916;12.834;2023-05-10T07:19:34;100533.13;;;15.66;51.57
29825;BME280;16713;52.916;12.834;2023-05-10T07:22:00;100524.84;;;15.80;51.19
29825;BME280;16713;52.916;12.834;2023-05-10T07:24:27;100539.44;;;16.16;51.85
29825;BME280;16713;52.916;12.834;2023-05-10T07:26:53;100544.19;;;16.47;50.09
29825;BME280;16713;52.916;12.834;2023-05-10T07:29:19;100537.41;;;16.80;49.93
29825;BME280;16713;52.916;12.834;2023-05-10T07:31:46;100540.13;;;16.90;49.92
29825;BME280;16713;52.916;12.834;2023-05-10T07:34:12;100540.44;;;17.17;48.61
29825;BME280;16713;52.916;12.834;2023-05-10T07:36:38;100545.03;;;17.44;48.82
29825;BME280;16713;52.916;12.834;2023-05-10T07:39:05;100543.38;;;17.54;48.56
29825;BME280;16713;52.916;12.834;2023-05-10T07:41:31;100543.31;;;17.68;49.11
29825;BME280;16713;52.916;12.834;2023-05-10T07:44:00;100549.50;;;17.86;49.15
29825;BME280;16713;52.916;12.834;2023-05-10T07:46:27;100556.56;;;18.01;47.50
29825;BME280;16713;52.916;12.834;2023-05-10T07:48:53;100560.44;;;18.11;47.99
29825;BME280;16713;52.916;12.834;2023-05-10T07:51:19;100562.66;;;18.30;48.58
29825;BME280;16713;52.916;12.834;2023-05-10T07:53:46;100574.00;;;18.46;48.50
29825;BME280;16713;52.916;12.834;2023-05-10T07:56:22;100563.28;;;18.48;47.39
29825;BME280;16713;52.916;12.834;2023-05-10T07:58:49;100550.31;;;18.34;46.93
29825;BME280;16713;52.916;12.834;2023-05-10T08:01:16;100560.56;;;18.41;47.84
29825;BME280;16713;52.916;12.834;2023-05-10T08:03:42;100558.63;;;18.38;47.70
29825;BME280;16713;52.916;12.834;2023-05-10T08:06:09;100548.34;;;18.35;47.80
29825;BME280;16713;52.916;12.834;2023-05-10T08:08:35;100562.41;;;18.58;48.99
29825;BME280;16713;52.916;12.834;2023-05-10T08:11:02;100553.06;;;18.38;47.35
29825;BME280;16713;52.916;12.834;2023-05-10T08:13:28;100560.00;;;18.16;47.54
29825;BME280;16713;52.916;12.834;2023-05-10T08:15:54;100552.06;;;18.18;47.75
29825;BME280;16713;52.916;12.834;2023-05-10T08:18:21;100555.06;;;18.37;49.52
29825;BME280;16713;52.916;12.834;2023-05-10T08:20:47;100548.88;;;18.19;48.83
29825;BME280;16713;52.916;12.834;2023-05-10T08:23:14;100550.31;;;18.34;47.71
29825;BME280;16713;52.916;12.834;2023-05-10T08:25:40;100549.97;;;18.32;47.69
29825;BME280;16713;52.916;12.834;2023-05-10T08:28:06;100564.81;;;18.52;47.01
29825;BME280;16713;52.916;12.834;2023-05-10T08:30:35;100554.31;;;18.30;47.87
29825;BME280;16713;52.916;12.834;2023-05-10T08:33:01;100553.88;;;18.35;48.31
29825;BME280;16713;52.916;12.834;2023-05-10T08:35:27;100552.56;;;18.06;48.32
29825;BME280;16713;52.916;12.834;2023-05-10T08:37:54;100549.06;;;17.95;48.38
29825;BME280;16713;52.916;12.834;2023-05-10T08:40:20;100569.75;;;18.34;47.67
29825;BME280;16713;52.916;12.834;2023-05-10T08:42:50;100562.16;;;18.42;48.04
29825;BME280;16713;52.916;12.834;2023-05-10T08:45:17;100565.16;;;18.17;47.73
29825;BME280;16713;52.916;12.834;2023-05-10T08:47:45;100549.44;;;18.00;48.87
29825;BME280;16713;52.916;12.834;2023-05-10T08:50:12;100561.59;;;18.17;47.49
29825;BME280;16713;52.916;12.834;2023-05-10T08:52:39;100544.72;;;17.94;48.63
29825;BME280;16713;52.916;12.834;2023-05-10T08:55:06;100554.09;;;18.10;50.29
29825;BME280;16713;52.916;12.834;2023-05-10T08:57:33;100563.94;;;18.18;48.76
29825;BME280;16713;52.916;12.834;2023-05-10T09:00:00;100555.69;;;18.15;48.44
29825;BME280;16713;52.916;12.834;2023-05-10T09:02:27;100544.47;;;17.74;49.52
29825;BME280;16713;52.916;12.834;2023-05-10T09:04:53;100546.28;;;17.95;49.16
29825;BME280;16713;52.916;12.834;2023-05-10T09:07:19;100544.78;;;17.83;48.96
29825;BME280;16713;52.916;12.834;2023-05-10T09:09:46;100560.53;;;18.04;49.02
29825;BME280;16713;52.916;12.834;2023-05-10T09:12:13;100563.19;;;18.14;50.36
29825;BME280;16713;52.916;12.834;2023-05-10T09:14:42;100547.19;;;17.81;49.29
29825;BME280;16713;52.916;12.834;2023-05-10T09:17:09;100546.34;;;17.88;48.39
29825;BME280;16713;52.916;12.834;2023-05-10T09:19:35;100553.03;;;17.94;49.01
29825;BME280;16713;52.916;12.834;2023-05-10T09:22:02;100552.75;;;17.81;50.45
29825;BME280;16713;52.916;12.834;2023-05-10T09:24:29;100578.34;;;18.50;49.94
29825;BME280;16713;52.916;12.834;2023-05-10T09:26:56;100584.44;;;18.79;50.20
29825;BME280;16713;52.916;12.834;2023-05-10T09:29:23;100588.88;;;19.07;49.31
29825;BME280;16713;52.916;12.834;2023-05-10T09:31:50;100586.34;;;19.19;46.89
29825;BME280;16713;52.916;12.834;2023-05-10T09:34:18;100592.03;;;19.39;46.80
29825;BME280;16713;52.916;12.834;2023-05-10T09:36:54;100596.34;;;19.47;48.17
29825;BME280;16713;52.916;12.834;2023-05-10T09:39:20;100603.31;;;19.62;47.39
29825;BME280;16713;52.916;12.834;2023-05-10T09:41:47;100600.72;;;19.74;47.72
29825;BME280;16713;52.916;12.834;2023-05-10T09:44:16;100611.69;;;19.88;48.99
29825;BME280;16713;52.916;12.834;2023-05-10T09:46:48;100608.41;;;19.93;46.91
29825;BME280;16713;52.916;12.834;2023-05-10T09:49:14;100602.06;;;19.93;46.90
29825;BME280;16713;52.916;12.834;2023-05-10T09:51:40;100611.84;;;20.04;46.29
29825;BME280;16713;52.916;12.834;2023-05-10T09:54:10;100598.38;;;19.73;46.37
29825;BME280;16713;52.916;12.834;2023-05-10T09:56:37;100608.84;;;20.18;45.82
29825;BME280;16713;52.916;12.834;2023-05-10T09:59:06;100619.81;;;20.29;46.33
29825;BME280;16713;52.916;12.834;2023-05-10T10:01:34;100619.84;;;20.26;47.23
29825;BME280;16713;52.916;12.834;2023-05-10T10:04:04;100617.44;;;20.28;46.74
29825;BME280;16713;52.916;12.834;2023-05-10T10:06:35;100615.03;;;20.30;45.67
29825;BME280;16713;52.916;12.834;2023-05-10T10:09:01;100595.13;;;19.78;45.50
29825;BME280;16713;52.916;12.834;2023-05-10T10:11:28;100607.19;;;20.21;45.88
29825;BME280;16713;52.916;12.834;2023-05-10T10:13:54;100609.28;;;20.17;45.88
29825;BME280;16713;52.916;12.834;2023-05-10T10:16:21;100597.97;;;20.01;45.60
29825;BME280;16713;52.916;12.834;2023-05-10T10:18:47;100609.63;;;20.19;45.81
29825;BME280;16713;52.916;12.834;2023-05-10T10:21:14;100598.63;;;20.08;45.67
29825;BME280;16713;52.916;12.834;2023-05-10T10:23:41;100583.34;;;19.67;47.14
29825;BME280;16713;52.916;12.834;2023-05-10T10:26:07;100599.69;;;19.91;47.00
29825;BME280;16713;52.916;12.834;2023-05-10T10:28:40;100595.38;;;19.87;47.50
29825;BME280;16713;52.916;12.834;2023-05-10T10:31:17;100602.91;;;19.90;46.40
29825;BME280;16713;52.916;12.834;2023-05-10T10:36:14;100593.13;;;19.78;47.32
29825;BME280;16713;52.916;12.834;2023-05-10T10:47:00;100572.56;;;19.39;46.35
29825;BME280;16713;52.916;12.834;2023-05-10T10:49:26;100583.22;;;19.47;46.68
29825;BME280;16713;52.916;12.834;2023-05-10T10:54:38;100580.56;;;19.37;45.34
29825;BME280;16713;52.916;12.834;2023-05-10T10:57:11;100575.94;;;19.27;46.08
29825;BME280;16713;52.916;12.834;2023-05-10T10:59:42;100583.59;;;19.49;45.49
29825;BME280;16713;52.916;12.834;2023-05-10T11:02:32;100580.56;;;19.37;46.14
29825;BME280;16713;52.916;12.834;2023-05-10T11:04:58;100583.31;;;19.40;46.44
29825;BME280;16713;52.916;12.834;2023-05-10T11:07:25;100576.34;;;19.25;46.09
29825;BME280;16713;52.916;12.834;2023-05-10T11:09:52;100581.41;;;19.34;46.64
29825;BME280;16713;52.916;12.834;2023-05-10T11:12:18;100581.28;;;19.41;46.63
29825;BME280;16713;52.916;12.834;2023-05-10T11:14:49;100583.34;;;19.37;46.15
29825;BME280;16713;52.916;12.834;2023-05-10T11:17:26;100578.28;;;19.28;47.64
29825;BME280;16713;52.916;12.834;2023-05-10T11:20:09;100572.03;;;19.21;46.42
29825;BME280;16713;52.916;12.834;2023-05-10T11:22:54;100571.50;;;18.99;47.34
29825;BME280;16713;52.916;12.834;2023-05-10T11:25:26;100586.69;;;19.55;45.98
29825;BME280;16713;52.916;12.834;2023-05-10T11:27:52;100578.88;;;19.73;47.15
29825;BME280;16713;52.916;12.834;2023-05-10T11:30:18;100594.56;;;19.90;45.95
29825;BME280;16713;52.916;12.834;2023-05-10T11:32:46;100583.25;;;20.00;46.34
29825;BME280;16713;52.916;12.834;2023-05-10T11:35:12;100587.44;;;20.12;45.42
29825;BME280;16713;52.916;12.834;2023-05-10T11:37:39;100597.47;;;20.33;45.74
29825;BME280;16713;52.916;12.834;2023-05-10T11:40:09;100594.19;;;20.38;45.15
29825;BME280;16713;52.916;12.834;2023-05-10T11:42:39;100597.34;;;20.40;45.45
29825;BME280;16713;52.916;12.834;2023-05-10T11:45:05;100584.13;;;20.44;45.10
29825;BME280;16713;52.916;12.834;2023-05-10T11:47:32;100602.72;;;20.50;45.88
29825;BME280;16713;52.916;12.834;2023-05-10T11:49:58;100592.25;;;20.58;44.94
29825;BME280;16713;52.916;12.834;2023-05-10T11:52:26;100594.47;;;20.66;44.80
29825;BME280;16713;52.916;12.834;2023-05-10T11:54:52;100601.88;;;20.76;44.59
29825;BME280;16713;52.916;12.834;2023-05-10T11:57:20;100585.84;;;20.80;44.85
29825;BME280;16713;52.916;12.834;2023-05-10T11:59:47;100601.69;;;20.87;45.25
29825;BME280;16713;52.916;12.834;2023-05-10T12:02:13;100602.41;;;20.91;43.77
29825;BME280;16713;52.916;12.834;2023-05-10T12:04:40;100601.97;;;20.69;44.58
29825;BME280;16713;52.916;12.834;2023-05-10T12:07:07;100604.50;;;20.64;44.63
29825;BME280;16713;52.916;12.834;2023-05-10T12:09:33;100602.94;;;20.82;44.14
29825;BME280;16713;52.916;12.834;2023-05-10T12:12:09;100598.25;;;20.56;43.96
29825;BME280;16713;52.916;12.834;2023-05-10T12:14:36;100612.09;;;20.83;44.59
29825;BME280;16713;52.916;12.834;2023-05-10T12:17:02;100601.81;;;20.57;43.47
29825;BME280;16713;52.916;12.834;2023-05-10T12:19:29;100604.41;;;20.67;43.62
29825;BME280;16713;52.916;12.834;2023-05-10T12:22:04;100599.06;;;20.76;44.45
29825;BME280;16713;52.916;12.834;2023-05-10T12:24:30;100622.38;;;20.89;45.20
29825;BME280;16713;52.916;12.834;2023-05-10T12:26:57;100602.69;;;20.54;44.75
29825;BME280;16713;52.916;12.834;2023-05-10T12:29:23;100608.97;;;20.58;45.30
29825;BME280;16713;52.916;12.834;2023-05-10T12:31:53;100608.03;;;20.64;44.42
29825;BME280;16713;52.916;12.834;2023-05-10T12:36:50;100580.16;;;20.22;45.34
29825;BME280;16713;52.916;12.834;2023-05-10T12:39:16;100601.16;;;20.26;44.63
29825;BME280;16713;52.916;12.834;2023-05-10T12:41:43;100596.94;;;20.41;44.96
29825;BME280;16713;52.916;12.834;2023-05-10T12:44:09;100597.28;;;20.43;45.65
29825;BME280;16713;52.916;12.834;2023-05-10T12:46:35;100608.56;;;20.36;45.25
29825;BME280;16713;52.916;12.834;2023-05-10T12:49:02;100600.78;;;20.24;45.56
29825;BME280;16713;52.916;12.834;2023-05-10T12:51:34;100597.22;;;19.97;45.16
29825;BME280;16713;52.916;12.834;2023-05-10T12:54:01;100603.78;;;20.10;45.40
29825;BME280;16713;52.916;12.834;2023-05-10T12:56:28;100593.09;;;20.05;46.45
29825;BME280;16713;52.916;12.834;2023-05-10T12:58:54;100593.38;;;19.87;46.20
29825;BME280;16713;52.916;12.834;2023-05-10T13:01:21;100601.72;;;20.14;45.25
29825;BME280;16713;52.916;12.834;2023-05-10T13:03:47;100605.16;;;20.25;46.16
29825;BME280;16713;52.916;12.834;2023-05-10T13:06:13;100603.50;;;20.28;45.29
29825;BME280;16713;52.916;12.834;2023-05-10T13:08:40;100590.03;;;19.99;45.32
29825;BME280;16713;52.916;12.834;2023-05-10T13:11:06;100593.28;;;19.94;45.98
29825;BME280;16713;52.916;12.834;2023-05-10T13:13:33;100595.59;;;19.99;46.48
29825;BME280;16713;52.916;12.834;2023-05-10T13:15:59;100576.38;;;19.82;46.32
29825;BME280;16713;52.916;12.834;2023-05-10T13:18:26;100586.13;;;19.93;47.28
29825;BME280;16713;52.916;12.834;2023-05-10T13:20:53;100590.13;;;20.19;46.09